createdAt,value
2023-02-14T00:00:48.259Z,14.50
2023-02-14T00:03:15.055Z,14.07
2023-02-14T00:05:41.834Z,14.38
2023-02-14T00:08:08.546Z,14.70
2023-02-14T00:10:35.184Z,15.40
2023-02-14T00:13:01.770Z,13.45
2023-02-14T00:15:28.318Z,15.48
2023-02-14T00:17:59.677Z,14.63
2023-02-14T00:20:28.172Z,15.45
2023-02-14T00:22:54.958Z,13.00
2023-02-14T00:25:21.874Z,14.35
2023-02-14T00:27:48.472Z,14.88
2023-02-14T00:30:15.305Z,14.63
2023-02-14T00:32:42.818Z,15.10
2023-02-14T00:35:10.599Z,16.40
2023-02-14T00:37:37.403Z,16.20
2023-02-14T00:40:05.724Z,14.43
2023-02-14T00:42:32.352Z,13.70
2023-02-14T00:44:58.992Z,15.60
2023-02-14T00:47:25.701Z,15.17
2023-02-14T00:49:52.417Z,16.60
2023-02-14T00:52:19.350Z,16.50
2023-02-14T00:54:46.025Z,15.97
2023-02-14T00:57:12.629Z,17.80
2023-02-14T00:59:39.303Z,17.77
2023-02-14T01:02:06.049Z,16.87
2023-02-14T01:04:32.638Z,14.87
2023-02-14T01:06:59.182Z,16.87
2023-02-14T01:09:25.756Z,17.83
2023-02-14T01:11:52.394Z,16.93
2023-02-14T01:14:19.096Z,16.70
2023-02-14T01:16:45.705Z,15.65
2023-02-14T01:19:12.357Z,15.40
2023-02-14T01:21:38.924Z,16.60
2023-02-14T01:24:07.934Z,16.43
2023-02-14T01:26:35.503Z,18.38
2023-02-14T01:29:03.880Z,17.50
2023-02-14T01:31:32.900Z,15.77
2023-02-14T01:33:59.973Z,18.97
2023-02-14T01:36:33.053Z,16.97
2023-02-14T01:39:03.318Z,16.20
2023-02-14T01:41:32.866Z,18.40
2023-02-14T01:43:59.484Z,19.30
2023-02-14T01:46:28.355Z,19.87
2023-02-14T01:49:01.839Z,19.13
2023-02-14T01:51:30.236Z,22.70
2023-02-14T01:53:57.333Z,18.45
2023-02-14T01:56:34.854Z,17.53
2023-02-14T01:59:04.862Z,16.73
2023-02-14T02:01:31.601Z,19.17
2023-02-14T02:04:06.949Z,18.42
2023-02-14T02:06:37.891Z,20.20
2023-02-14T02:09:14.110Z,20.73
2023-02-14T02:11:42.303Z,19.30
2023-02-14T02:14:18.582Z,21.50
2023-02-14T02:16:45.252Z,18.13
2023-02-14T02:19:20.902Z,20.63
2023-02-14T02:22:08.958Z,20.00
2023-02-14T02:24:40.829Z,22.53
2023-02-14T02:27:08.591Z,22.03
2023-02-14T02:30:15.756Z,21.37
2023-02-14T02:33:20.104Z,22.47
2023-02-14T02:35:54.616Z,22.00
2023-02-14T02:38:52.178Z,24.03
2023-02-14T02:41:33.612Z,23.63
2023-02-14T02:44:30.434Z,21.33
2023-02-14T02:47:05.905Z,22.60
2023-02-14T02:50:03.583Z,27.70
2023-02-14T02:53:07.729Z,24.83
2023-02-14T02:56:03.796Z,24.47
2023-02-14T02:58:35.811Z,23.70
2023-02-14T03:01:07.955Z,23.53
2023-02-14T03:03:54.615Z,23.27
2023-02-14T03:06:21.334Z,23.83
2023-02-14T03:08:47.867Z,25.70
2023-02-14T03:11:15.274Z,26.53
2023-02-14T03:14:00.855Z,26.97
2023-02-14T03:16:31.858Z,28.27
2023-02-14T03:19:40.414Z,28.27
2023-02-14T03:22:28.422Z,30.63
2023-02-14T03:25:04.804Z,31.27
2023-02-14T03:27:39.447Z,30.50
2023-02-14T03:30:16.000Z,27.43
2023-02-14T03:32:48.476Z,28.63
2023-02-14T03:35:36.566Z,28.60
2023-02-14T03:38:27.249Z,29.97
2023-02-14T03:41:12.599Z,31.80
2023-02-14T03:43:59.269Z,32.77
2023-02-14T03:46:29.225Z,32.80
2023-02-14T03:49:00.220Z,32.10
2023-02-14T03:51:34.265Z,31.30
2023-02-14T03:54:03.022Z,32.23
2023-02-14T03:56:45.440Z,32.80
2023-02-14T03:59:30.184Z,29.97
2023-02-14T04:02:21.687Z,34.07
2023-02-14T04:04:51.432Z,30.53
2023-02-14T04:07:21.184Z,29.97
2023-02-14T04:09:48.905Z,31.47
2023-02-14T04:12:19.837Z,31.40
2023-02-14T04:14:50.572Z,34.13
2023-02-14T04:17:35.441Z,31.57
2023-02-14T04:20:02.029Z,29.83
2023-02-14T04:22:28.574Z,35.33
2023-02-14T04:24:55.098Z,35.90
2023-02-14T04:27:21.667Z,37.07
2023-02-14T04:29:49.795Z,32.93
2023-02-14T04:32:21.781Z,34.27
2023-02-14T04:34:48.710Z,33.47
2023-02-14T04:37:18.280Z,32.03
2023-02-14T04:39:44.881Z,35.30
2023-02-14T04:42:12.634Z,33.70
2023-02-14T04:44:39.284Z,35.67
2023-02-14T04:47:06.960Z,34.73
2023-02-14T04:49:33.932Z,34.47
2023-02-14T04:52:00.559Z,33.83
2023-02-14T04:54:27.415Z,32.70
2023-02-14T04:56:54.027Z,37.93
2023-02-14T04:59:20.841Z,36.33
2023-02-14T05:01:47.421Z,37.80
2023-02-14T05:04:14.410Z,35.67
2023-02-14T05:06:40.995Z,37.33
2023-02-14T05:09:07.740Z,38.77
2023-02-14T05:11:34.282Z,39.40
2023-02-14T05:14:00.809Z,38.67
2023-02-14T05:16:27.487Z,39.60
2023-02-14T05:18:54.261Z,37.50
2023-02-14T05:21:20.836Z,38.10
2023-02-14T05:23:47.433Z,35.63
2023-02-14T05:26:14.218Z,36.23
2023-02-14T05:28:41.145Z,34.20
2023-02-14T05:31:08.904Z,34.93
2023-02-14T05:33:35.619Z,33.63
2023-02-14T05:36:02.814Z,33.47
2023-02-14T05:38:30.675Z,37.77
2023-02-14T05:40:57.385Z,36.97
2023-02-14T05:43:24.093Z,38.50
2023-02-14T05:45:50.720Z,37.37
2023-02-14T05:48:17.586Z,38.10
2023-02-14T05:50:45.563Z,39.90
2023-02-14T05:53:13.105Z,39.13
2023-02-14T05:55:39.805Z,35.37
2023-02-14T05:58:06.887Z,36.10
2023-02-14T06:00:34.484Z,33.50
2023-02-14T06:03:01.557Z,32.83
2023-02-14T06:05:28.323Z,37.33
2023-02-14T06:07:54.857Z,33.80
2023-02-14T06:10:24.909Z,36.47
2023-02-14T06:12:53.408Z,37.70
2023-02-14T06:15:20.293Z,37.90
2023-02-14T06:17:54.599Z,40.00
2023-02-14T06:20:22.100Z,40.57
2023-02-14T06:22:48.882Z,38.03
2023-02-14T06:25:15.850Z,39.23
2023-02-14T06:27:42.760Z,40.13
2023-02-14T06:30:10.661Z,38.30
2023-02-14T06:32:37.387Z,45.80
2023-02-14T06:35:04.283Z,39.00
2023-02-14T06:37:30.822Z,39.57
2023-02-14T06:39:57.527Z,39.03
2023-02-14T06:42:24.162Z,37.40
2023-02-14T06:44:50.849Z,38.87
2023-02-14T06:47:17.398Z,33.83
2023-02-14T06:49:43.958Z,35.43
2023-02-14T06:52:10.834Z,39.53
2023-02-14T06:54:37.359Z,37.37
2023-02-14T06:57:03.995Z,37.53
2023-02-14T06:59:30.842Z,36.07
2023-02-14T07:01:57.376Z,37.87
2023-02-14T07:04:23.978Z,36.20
2023-02-14T07:06:50.757Z,38.57
2023-02-14T07:09:18.307Z,38.90
2023-02-14T07:11:45.820Z,38.27
2023-02-14T07:14:13.097Z,40.13
2023-02-14T07:16:39.800Z,38.43
2023-02-14T07:19:06.414Z,36.83
2023-02-14T07:21:33.025Z,34.63
2023-02-14T07:24:00.822Z,36.43
2023-02-14T07:26:27.438Z,35.70
2023-02-14T07:28:54.046Z,34.97
2023-02-14T07:31:22.726Z,35.53
2023-02-14T07:33:51.319Z,37.80
2023-02-14T07:36:18.458Z,35.00
2023-02-14T07:38:45.051Z,34.87
2023-02-14T07:41:11.644Z,36.37
2023-02-14T07:43:39.733Z,33.97
2023-02-14T07:46:06.789Z,35.77
2023-02-14T07:48:34.440Z,36.10
2023-02-14T07:51:01.828Z,34.10
2023-02-14T07:53:28.595Z,40.47
2023-02-14T07:55:55.455Z,34.25
2023-02-14T07:58:22.072Z,36.15
2023-02-14T08:00:48.995Z,38.40
2023-02-14T08:03:16.130Z,34.30
2023-02-14T08:05:43.174Z,36.50
2023-02-14T08:08:09.837Z,33.97
2023-02-14T08:10:36.450Z,35.07
2023-02-14T08:13:03.719Z,35.93
2023-02-14T08:15:53.843Z,34.53
2023-02-14T08:18:25.458Z,32.33
2023-02-14T08:20:53.279Z,32.30
2023-02-14T08:23:21.058Z,34.45
2023-02-14T08:25:52.688Z,31.33
2023-02-14T08:28:21.916Z,31.92
2023-02-14T08:30:48.601Z,29.00
2023-02-14T08:33:15.213Z,31.30
2023-02-14T08:35:41.984Z,31.90
2023-02-14T08:38:08.606Z,30.63
2023-02-14T08:40:37.125Z,32.33
2023-02-14T08:43:05.659Z,32.95
2023-02-14T08:45:32.818Z,31.52
2023-02-14T08:48:04.493Z,30.63
2023-02-14T08:50:31.174Z,28.27
2023-02-14T08:52:57.956Z,29.75
2023-02-14T08:55:24.677Z,31.40
2023-02-14T08:57:51.272Z,33.20
2023-02-14T09:00:18.214Z,31.52
2023-02-14T09:02:44.818Z,29.73
2023-02-14T09:05:11.481Z,31.30
2023-02-14T09:07:38.048Z,28.33
2023-02-14T09:10:05.165Z,32.10
2023-02-14T09:12:31.727Z,30.73
2023-02-14T09:14:58.373Z,27.52
2023-02-14T09:17:25.007Z,29.05
2023-02-14T09:19:51.644Z,29.13
2023-02-14T09:22:20.253Z,27.10
2023-02-14T09:24:46.935Z,26.52
2023-02-14T09:27:13.539Z,26.85
2023-02-14T09:29:40.149Z,31.27
2023-02-14T09:32:06.885Z,28.38
2023-02-14T09:34:34.987Z,27.60
2023-02-14T09:37:01.605Z,29.10
2023-02-14T09:39:28.182Z,27.98
2023-02-14T09:41:54.710Z,27.63
2023-02-14T09:44:44.431Z,26.73
2023-02-14T09:47:31.489Z,29.38
2023-02-14T09:49:58.840Z,29.83
2023-02-14T09:52:29.214Z,29.35
2023-02-14T09:55:01.156Z,27.25
2023-02-14T09:57:43.396Z,27.25
2023-02-14T10:00:21.800Z,27.58
2023-02-14T10:03:12.616Z,24.83
2023-02-14T10:05:58.145Z,26.00
2023-02-14T10:08:56.048Z,27.60
2023-02-14T10:11:24.888Z,29.88
2023-02-14T10:14:05.307Z,26.50
2023-02-14T10:16:38.716Z,26.52
2023-02-14T10:19:19.123Z,29.25
2023-02-14T10:21:54.334Z,27.73
2023-02-14T10:24:56.161Z,23.90
2023-02-14T10:27:42.528Z,26.20
2023-02-14T10:30:23.767Z,27.58
2023-02-14T10:33:01.942Z,24.67
2023-02-14T10:35:28.448Z,24.25
2023-02-14T10:38:17.469Z,27.90
2023-02-14T10:41:21.345Z,26.65
2023-02-14T10:44:01.776Z,24.52
2023-02-14T10:46:57.790Z,25.50
2023-02-14T10:49:30.268Z,26.50
2023-02-14T10:52:32.204Z,24.83
2023-02-14T10:55:05.604Z,23.58
2023-02-14T10:57:37.022Z,26.70
2023-02-14T11:00:16.734Z,27.55
2023-02-14T11:02:46.941Z,27.55
2023-02-14T11:05:31.176Z,25.48
2023-02-14T11:08:01.956Z,25.70
2023-02-14T11:10:33.065Z,24.48
2023-02-14T11:12:59.826Z,23.20
2023-02-14T11:15:31.505Z,27.33
2023-02-14T11:18:24.975Z,25.95
2023-02-14T11:21:24.379Z,22.50
2023-02-14T11:23:51.576Z,25.45
2023-02-14T11:26:24.757Z,24.20
2023-02-14T11:28:56.811Z,24.25
2023-02-14T11:31:42.837Z,25.02
2023-02-14T11:34:36.599Z,26.38
2023-02-14T11:37:16.165Z,26.70
2023-02-14T11:39:43.035Z,23.75
2023-02-14T11:42:12.981Z,26.38
2023-02-14T11:44:55.901Z,28.55
2023-02-14T11:47:29.411Z,22.85
2023-02-14T11:50:23.696Z,29.20
2023-02-14T11:52:56.426Z,27.38
2023-02-14T11:55:34.029Z,25.63
2023-02-14T11:58:05.391Z,26.38
2023-02-14T12:00:33.508Z,26.00
2023-02-14T12:03:05.019Z,26.17
2023-02-14T12:05:48.667Z,27.77
2023-02-14T12:08:15.904Z,23.65
2023-02-14T12:10:42.553Z,28.20
2023-02-14T12:13:09.053Z,24.42
2023-02-14T12:15:42.727Z,27.75
2023-02-14T12:18:09.297Z,24.98
2023-02-14T12:20:42.651Z,21.13
2023-02-14T12:23:24.113Z,28.02
2023-02-14T12:25:56.569Z,29.20
2023-02-14T12:28:31.521Z,22.15
2023-02-14T12:30:58.824Z,23.60
2023-02-14T12:33:26.619Z,25.90
2023-02-14T12:36:05.340Z,26.65
2023-02-14T12:38:57.814Z,25.85
2023-02-14T12:41:36.810Z,21.30
2023-02-14T12:44:12.483Z,23.40
2023-02-14T12:47:05.336Z,38.63
2023-02-14T12:49:40.682Z,30.10
2023-02-14T12:52:16.278Z,25.48
2023-02-14T12:54:48.410Z,26.50
2023-02-14T12:57:24.653Z,23.83
2023-02-14T13:00:03.007Z,30.98
2023-02-14T13:02:51.033Z,26.83
2023-02-14T13:05:48.724Z,24.90
2023-02-14T13:08:18.194Z,23.50
2023-02-14T13:10:54.668Z,25.60
2023-02-14T13:13:40.187Z,26.83
2023-02-14T13:16:22.118Z,27.58
2023-02-14T13:18:54.953Z,31.02
2023-02-14T13:21:33.647Z,26.77
2023-02-14T13:24:24.343Z,25.80
2023-02-14T13:26:59.114Z,29.90
2023-02-14T13:29:44.531Z,26.98
2023-02-14T13:32:14.281Z,26.63
2023-02-14T13:34:46.827Z,26.33
2023-02-14T13:37:22.836Z,26.92
2023-02-14T13:39:59.389Z,28.58
2023-02-14T13:42:49.724Z,29.58
2023-02-14T13:45:40.777Z,29.80
2023-02-14T13:48:13.136Z,31.83
2023-02-14T13:50:50.710Z,33.15
2023-02-14T13:53:41.373Z,29.25
2023-02-14T13:56:16.864Z,28.05
2023-02-14T13:59:24.476Z,30.80
2023-02-14T14:01:51.456Z,34.70
2023-02-14T14:04:30.494Z,26.20
2023-02-14T14:07:02.956Z,30.45
2023-02-14T14:09:41.753Z,35.15
2023-02-14T14:12:26.241Z,28.05
2023-02-14T14:15:04.943Z,29.45
2023-02-14T14:17:36.473Z,37.25
2023-02-14T14:20:24.665Z,27.52
2023-02-14T14:22:55.169Z,33.60
2023-02-14T14:44:17.437Z,27.35
2023-02-14T14:46:45.123Z,28.25
2023-02-14T14:49:12.743Z,32.88
2023-02-14T14:51:40.044Z,31.23
2023-02-14T14:54:12.341Z,27.92
2023-02-14T14:56:50.965Z,31.55
2023-02-14T14:59:27.636Z,26.95
2023-02-14T15:01:54.614Z,30.38
2023-02-14T15:04:29.316Z,28.63
2023-02-14T15:06:57.730Z,33.17
2023-02-14T15:09:31.560Z,31.25
2023-02-14T15:12:19.781Z,29.77
2023-02-14T15:14:54.423Z,28.42
2023-02-14T15:17:32.797Z,27.35
2023-02-14T15:20:04.055Z,35.55
2023-02-14T15:22:41.428Z,32.90
2023-02-14T15:25:10.728Z,36.88
2023-02-14T15:27:41.321Z,33.30
2023-02-14T15:30:23.524Z,29.20
2023-02-14T15:32:51.340Z,29.60
2023-02-14T15:35:24.171Z,27.02
2023-02-14T15:37:52.019Z,28.13
2023-02-14T15:40:24.169Z,26.17
2023-02-14T15:42:56.432Z,32.85
2023-02-14T15:45:27.623Z,27.90
2023-02-14T15:47:59.800Z,36.35
2023-02-14T15:50:31.313Z,27.20
2023-02-14T15:53:08.100Z,34.25
2023-02-14T15:55:36.176Z,27.90
2023-02-14T15:58:08.606Z,26.02
2023-02-14T16:00:35.629Z,30.38
2023-02-14T16:03:10.761Z,26.60
2023-02-14T16:05:37.500Z,26.85
2023-02-14T16:08:05.349Z,30.70
2023-02-14T16:10:34.855Z,28.23
2023-02-14T16:13:06.607Z,28.50
2023-02-14T16:15:38.741Z,29.98
2023-02-14T16:18:32.675Z,32.47
2023-02-14T16:21:11.579Z,29.10
2023-02-14T16:23:38.183Z,30.52
2023-02-14T16:26:08.563Z,34.17
2023-02-14T16:28:36.908Z,32.28
2023-02-14T16:31:06.203Z,31.00
2023-02-14T16:33:35.577Z,34.00
2023-02-14T16:36:14.236Z,35.05
2023-02-14T16:38:44.992Z,33.65
2023-02-14T16:41:20.388Z,30.10
2023-02-14T16:43:48.207Z,37.70
2023-02-14T16:46:16.752Z,31.98
2023-02-14T16:48:43.606Z,37.40
2023-02-14T16:51:14.005Z,35.85
2023-02-14T16:53:42.683Z,40.92
2023-02-14T16:56:17.026Z,36.38
2023-02-14T16:58:43.950Z,37.03
2023-02-14T17:01:10.479Z,38.33
2023-02-14T17:03:36.979Z,38.30
2023-02-14T17:06:03.599Z,38.85
2023-02-14T17:08:31.107Z,40.05
2023-02-14T17:10:58.567Z,41.20
2023-02-14T17:13:27.653Z,36.95
2023-02-14T17:15:55.041Z,34.42
2023-02-14T17:18:23.350Z,29.52
2023-02-14T17:20:49.917Z,29.77
2023-02-14T17:23:16.468Z,28.33
2023-02-14T17:25:43.191Z,35.58
2023-02-14T17:28:10.785Z,28.48
2023-02-14T17:30:37.219Z,23.75
2023-02-14T17:33:04.821Z,29.63
2023-02-14T17:35:33.276Z,27.00
2023-02-14T17:37:59.735Z,38.28
2023-02-14T17:40:28.227Z,38.97
2023-02-14T17:42:54.704Z,35.55
2023-02-14T17:45:21.120Z,45.33
2023-02-14T17:47:47.628Z,48.45
2023-02-14T17:50:15.680Z,69.25
2023-02-14T17:52:42.581Z,67.40
2023-02-14T17:55:09.361Z,55.08
2023-02-14T17:57:36.895Z,46.92
2023-02-14T18:00:05.748Z,43.60
2023-02-14T18:02:32.410Z,45.80
2023-02-14T18:04:59.240Z,43.60
2023-02-14T18:07:25.764Z,45.63
2023-02-14T18:09:52.299Z,42.78
2023-02-14T18:12:18.841Z,50.10
2023-02-14T18:14:45.332Z,44.55
2023-02-14T18:17:12.863Z,47.88
2023-02-14T18:19:39.464Z,38.65
2023-02-14T18:22:05.926Z,70.90
2023-02-14T18:24:32.547Z,47.03
2023-02-14T18:26:59.182Z,47.53
2023-02-14T18:29:26.079Z,49.78
2023-02-14T18:31:53.047Z,42.08
2023-02-14T18:34:19.618Z,41.70
2023-02-14T18:36:46.426Z,49.95
2023-02-14T18:39:12.963Z,45.35
2023-02-14T18:41:39.747Z,53.13
2023-02-14T18:44:07.109Z,46.25
2023-02-14T18:46:35.622Z,50.33
2023-02-14T18:49:05.886Z,59.55
2023-02-14T18:51:39.305Z,57.05
2023-02-14T18:54:06.897Z,56.05
2023-02-14T18:56:36.739Z,54.55
2023-02-14T18:59:06.666Z,48.78
2023-02-14T19:01:39.470Z,46.85
2023-02-14T19:04:08.617Z,46.83
2023-02-14T19:06:35.860Z,47.35
2023-02-14T19:09:03.281Z,46.90
2023-02-14T19:11:31.763Z,45.67
2023-02-14T19:14:00.481Z,50.97
2023-02-14T19:16:33.349Z,43.42
2023-02-14T19:19:02.904Z,47.72
2023-02-14T19:21:33.774Z,47.65
2023-02-14T19:24:01.043Z,52.50
2023-02-14T19:26:32.688Z,49.30
2023-02-14T19:29:02.203Z,52.08
2023-02-14T19:31:29.601Z,51.80
2023-02-14T19:33:56.528Z,49.72
2023-02-14T19:36:23.931Z,51.05
2023-02-14T19:38:52.623Z,49.03
2023-02-14T19:41:23.258Z,48.78
2023-02-14T19:43:53.624Z,49.28
2023-02-14T19:46:21.393Z,48.08
2023-02-14T19:48:48.835Z,47.35
2023-02-14T19:51:36.498Z,49.00
2023-02-14T19:54:05.768Z,46.25
2023-02-14T19:56:36.535Z,47.58
2023-02-14T19:59:09.092Z,45.28
2023-02-14T20:01:42.120Z,44.78
2023-02-14T20:04:14.555Z,46.67
2023-02-14T20:06:42.344Z,45.83
2023-02-14T20:09:09.626Z,49.70
2023-02-14T20:11:50.141Z,46.00
2023-02-14T20:14:28.611Z,45.50
2023-02-14T20:16:58.114Z,44.95
2023-02-14T20:19:27.814Z,43.63
2023-02-14T20:21:54.992Z,41.53
2023-02-14T20:24:24.090Z,46.83
2023-02-14T20:26:51.677Z,49.00
2023-02-14T20:29:19.222Z,48.47
2023-02-14T20:31:48.954Z,51.05
2023-02-14T20:34:16.376Z,45.50
2023-02-14T20:36:43.700Z,51.10
2023-02-14T20:39:12.587Z,43.65
2023-02-14T20:41:39.203Z,48.17
2023-02-14T20:44:09.771Z,48.22
2023-02-14T20:46:36.340Z,46.78
2023-02-14T20:49:03.327Z,48.47
2023-02-14T20:51:29.939Z,46.35
2023-02-14T20:53:56.816Z,52.00
2023-02-14T20:56:23.804Z,48.65
2023-02-14T20:58:50.626Z,44.75
2023-02-14T21:01:20.572Z,47.08
2023-02-14T21:03:50.761Z,46.22
2023-02-14T21:06:19.318Z,46.88
2023-02-14T21:08:46.239Z,47.95
2023-02-14T21:11:15.013Z,46.85
2023-02-14T21:13:41.581Z,46.38
2023-02-14T21:16:10.975Z,46.05
2023-02-14T21:18:38.101Z,45.25
2023-02-14T21:21:32.513Z,49.00
2023-02-14T21:24:00.788Z,47.50
2023-02-14T21:26:27.930Z,50.38
2023-02-14T21:28:54.468Z,49.78
2023-02-14T21:31:21.818Z,47.38
2023-02-14T21:33:53.742Z,48.67
2023-02-14T21:36:21.962Z,47.58
2023-02-14T21:38:48.936Z,52.88
2023-02-14T21:41:18.504Z,47.00
2023-02-14T21:43:46.762Z,46.97
2023-02-14T21:46:18.072Z,47.30
2023-02-14T21:49:03.807Z,46.58
2023-02-14T21:51:31.547Z,46.40
2023-02-14T21:54:01.442Z,44.78
2023-02-14T21:56:28.384Z,46.60
2023-02-14T21:58:55.626Z,51.65
2023-02-14T22:01:28.486Z,45.40
2023-02-14T22:03:56.508Z,49.13
2023-02-14T22:06:23.935Z,48.88
2023-02-14T22:08:55.832Z,47.03
2023-02-14T22:11:23.535Z,46.40
2023-02-14T22:13:50.216Z,50.97
2023-02-14T22:16:19.091Z,49.73
2023-02-14T22:18:47.829Z,45.00
2023-02-14T22:21:17.007Z,50.53
2023-02-14T22:23:44.219Z,47.95
2023-02-14T22:26:13.768Z,49.42
2023-02-14T22:28:41.670Z,49.50
2023-02-14T22:31:08.418Z,54.85
2023-02-14T22:33:37.995Z,53.65
2023-02-14T22:36:05.394Z,49.97
2023-02-14T22:38:32.342Z,48.92
2023-02-14T22:41:08.733Z,52.47
2023-02-14T22:43:36.586Z,50.92
2023-02-14T22:46:05.391Z,54.75
2023-02-14T22:48:34.010Z,58.72
2023-02-14T22:51:29.681Z,49.08
2023-02-14T22:53:59.090Z,50.00
2023-02-14T22:56:28.632Z,50.30
2023-02-14T22:59:00.949Z,49.73
2023-02-14T23:01:28.561Z,50.97
2023-02-14T23:03:57.007Z,55.03
2023-02-14T23:06:25.735Z,52.35
2023-02-14T23:08:52.463Z,53.20
2023-02-14T23:11:27.599Z,54.83
2023-02-14T23:14:13.801Z,54.87
2023-02-14T23:16:59.294Z,58.90
2023-02-14T23:19:47.296Z,52.73
2023-02-14T23:22:21.484Z,57.77
2023-02-14T23:24:50.143Z,54.30
2023-02-14T23:27:19.662Z,57.83
2023-02-14T23:29:46.196Z,51.70
2023-02-14T23:32:13.282Z,54.33
2023-02-14T23:34:41.733Z,53.97
2023-02-14T23:37:09.284Z,53.00
2023-02-14T23:39:36.745Z,59.07
2023-02-14T23:42:11.498Z,57.23
2023-02-14T23:44:38.135Z,54.53
2023-02-14T23:47:06.285Z,56.30
2023-02-14T23:49:34.756Z,55.23
2023-02-14T23:52:02.004Z,58.53
2023-02-14T23:54:28.590Z,57.77
2023-02-14T23:56:55.432Z,54.77
2023-02-14T23:59:22.209Z,59.20
